Time;durP1;ratioP1;P1;durP2;ratioP2;P2;SDS_P1;SDS_P2;PMS_P1;PMS_P2;Temp;Humidity;BMP_temperature;BMP_pressure;BME280_temperature;BME280_humidity;BME280_pressure;Samples;Min_cycle;Max_cycle;Signal;HPM_P1;HPM_P2
2023/12/18 00:00:09;;;;;;;24.63;8.90;;;8.10;99.90;;;;;;5070295;28;20497;-70
2023/12/18 00:02:36;;;;;;;20.88;9.75;;;8.00;99.90;;;;;;5071019;28;20090;-70
2023/12/18 00:05:04;;;;;;;17.23;8.90;;;8.00;99.90;;;;;;5072070;28;20455;-70
2023/12/18 00:07:31;;;;;;;21.70;9.57;;;8.00;99.90;;;;;;5070262;28;20139;-70
2023/12/18 00:09:58;;;;;;;22.60;9.70;;;8.00;99.90;;;;;;5070754;28;20052;-70
2023/12/18 00:12:25;;;;;;;19.13;9.00;;;8.00;99.90;;;;;;5070561;28;20048;-70
2023/12/18 00:14:52;;;;;;;21.70;9.43;;;8.00;99.90;;;;;;5070226;28;20048;-70
2023/12/18 00:17:19;;;;;;;23.80;9.50;;;8.00;99.90;;;;;;5070694;28;20492;-70
2023/12/18 00:19:46;;;;;;;18.95;9.15;;;8.00;99.90;;;;;;5074195;28;20060;-70
2023/12/18 00:22:14;;;;;;;19.33;9.05;;;7.90;99.90;;;;;;5074181;28;20044;-70
2023/12/18 00:24:41;;;;;;;19.48;8.52;;;7.90;99.90;;;;;;5074680;28;20098;-70
2023/12/18 00:27:08;;;;;;;18.05;8.70;;;7.90;99.90;;;;;;5074571;28;20049;-70
2023/12/18 00:29:35;;;;;;;22.02;8.27;;;7.90;99.90;;;;;;5074240;28;20053;-70
2023/12/18 00:32:02;;;;;;;22.60;8.88;;;7.90;99.90;;;;;;5074529;28;20059;-70
2023/12/18 00:34:28;;;;;;;19.65;9.02;;;7.90;99.90;;;;;;5074766;28;20565;-70
2023/12/18 00:36:55;;;;;;;20.58;8.80;;;7.90;99.90;;;;;;5074183;28;20427;-70
2023/12/18 00:39:24;;;;;;;14.77;8.65;;;7.90;99.90;;;;;;5072651;28;20109;-71
2023/12/18 00:41:51;;;;;;;23.50;8.77;;;8.00;99.90;;;;;;5074282;28;20049;-70
2023/12/18 00:44:18;;;;;;;20.20;8.90;;;8.00;99.90;;;;;;5073609;28;20118;-70
2023/12/18 00:46:45;;;;;;;21.13;8.88;;;8.00;99.90;;;;;;5074416;28;20050;-69
2023/12/18 00:49:12;;;;;;;21.60;8.20;;;8.00;99.90;;;;;;5074230;28;20102;-69
2023/12/18 00:51:39;;;;;;;19.48;7.90;;;8.00;99.90;;;;;;5073901;28;20075;-70
2023/12/18 00:54:05;;;;;;;18.92;8.15;;;8.00;99.90;;;;;;5074273;28;20106;-69
2023/12/18 00:56:36;;;;;;;23.83;8.30;;;8.00;99.90;;;;;;5073582;28;20056;-69
2023/12/18 00:59:03;;;;;;;19.02;8.02;;;8.10;99.90;;;;;;5074146;28;20056;-70
2023/12/18 01:01:30;;;;;;;20.40;8.65;;;8.20;99.90;;;;;;5073819;28;20539;-69
2023/12/18 01:03:56;;;;;;;16.77;8.05;;;8.10;99.90;;;;;;5073598;28;20130;-69
2023/12/18 01:06:23;;;;;;;18.10;7.90;;;8.10;99.90;;;;;;5075341;28;20114;-69
2023/12/18 01:08:50;;;;;;;27.13;7.93;;;8.10;99.90;;;;;;5075126;28;20055;-69
2023/12/18 01:11:17;;;;;;;17.13;7.65;;;8.10;99.90;;;;;;5073489;28;20109;-69
2023/12/18 01:13:45;;;;;;;16.23;7.57;;;8.10;99.90;;;;;;5073921;28;20044;-69
2023/12/18 01:16:13;;;;;;;18.77;8.13;;;8.10;99.90;;;;;;5073851;28;20053;-69
2023/12/18 01:18:40;;;;;;;15.27;7.50;;;8.10;99.90;;;;;;5073252;28;20040;-69
2023/12/18 01:21:07;;;;;;;24.15;7.45;;;8.10;99.90;;;;;;5073579;28;20056;-69
2023/12/18 01:23:34;;;;;;;14.90;7.55;;;8.10;99.90;;;;;;5073794;28;20496;-69
2023/12/18 01:26:00;;;;;;;20.05;7.88;;;8.10;99.90;;;;;;5073006;28;20044;-69
2023/12/18 01:28:27;;;;;;;16.40;7.07;;;8.10;99.90;;;;;;5073432;28;20051;-69
2023/12/18 01:30:56;;;;;;;17.45;6.85;;;8.10;99.90;;;;;;5073409;28;20044;-69
2023/12/18 01:33:22;;;;;;;18.48;7.93;;;8.10;99.90;;;;;;5073026;28;20099;-69
2023/12/18 01:35:49;;;;;;;16.05;7.35;;;8.10;99.90;;;;;;5073718;28;20048;-69
2023/12/18 01:38:16;;;;;;;17.38;7.78;;;8.10;99.90;;;;;;5071126;28;20519;-69
2023/12/18 01:40:44;;;;;;;17.92;7.00;;;8.10;99.90;;;;;;5072843;28;20981;-69
2023/12/18 01:43:24;;;;;;;18.05;6.82;;;8.10;99.90;;;;;;5073459;28;20414;-69
2023/12/18 01:45:57;;;;;;;23.55;7.80;;;8.10;99.90;;;;;;5072521;28;20099;-69
2023/12/18 01:48:25;;;;;;;19.42;7.68;;;8.10;99.90;;;;;;5073204;28;20131;-68
2023/12/18 01:50:53;;;;;;;16.73;6.43;;;8.20;99.90;;;;;;5073477;28;20056;-69
2023/12/18 01:53:20;;;;;;;17.83;7.38;;;8.10;99.90;;;;;;5072728;28;20389;-69
2023/12/18 01:55:47;;;;;;;21.15;7.20;;;8.10;99.90;;;;;;5073194;28;20091;-69
2023/12/18 01:58:15;;;;;;;21.60;7.72;;;8.10;99.90;;;;;;5073319;28;20071;-69
2023/12/18 02:00:42;;;;;;;23.00;7.38;;;8.10;99.90;;;;;;5073525;28;20090;-70
2023/12/18 02:03:11;;;;;;;19.85;7.15;;;8.10;99.90;;;;;;5073174;28;20381;-69
2023/12/18 02:05:38;;;;;;;18.42;7.85;;;8.10;99.90;;;;;;5070672;28;20166;-69
2023/12/18 02:08:07;;;;;;;17.85;7.07;;;8.10;99.90;;;;;;5072147;28;20500;-69
2023/12/18 02:10:35;;;;;;;18.20;6.88;;;8.10;99.90;;;;;;5073013;28;20048;-69
2023/12/18 02:13:02;;;;;;;24.73;6.90;;;8.10;99.90;;;;;;5072896;28;20447;-69
2023/12/18 02:15:28;;;;;;;17.77;6.55;;;8.10;99.90;;;;;;5072308;28;20079;-69
2023/12/18 02:17:55;;;;;;;23.10;8.27;;;8.10;99.90;;;;;;5072906;28;20090;-69
2023/12/18 02:20:24;;;;;;;14.75;6.55;;;8.20;99.90;;;;;;5072812;28;20064;-69
2023/12/18 02:22:53;;;;;;;19.25;6.07;;;8.20;99.90;;;;;;5073267;28;20045;-69
2023/12/18 02:25:20;;;;;;;16.98;7.03;;;8.20;99.90;;;;;;5104185;28;20048;-70
2023/12/18 02:27:48;;;;;;;14.75;6.43;;;8.20;99.90;;;;;;5072121;28;20060;-69
2023/12/18 02:30:16;;;;;;;16.98;6.55;;;8.20;99.90;;;;;;5072557;28;20465;-69
2023/12/18 02:32:43;;;;;;;23.38;6.40;;;8.20;99.90;;;;;;5070085;28;20080;-69
2023/12/18 02:35:10;;;;;;;19.98;5.82;;;8.20;99.90;;;;;;5071964;28;20703;-69
2023/12/18 02:37:37;;;;;;;22.65;6.53;;;8.20;99.90;;;;;;5072512;28;20056;-69
2023/12/18 02:40:07;;;;;;;25.08;6.30;;;8.20;99.90;;;;;;5072077;28;20049;-69
2023/12/18 02:42:33;;;;;;;15.30;5.88;;;8.30;99.90;;;;;;5070966;28;20134;-69
2023/12/18 02:45:01;;;;;;;10.85;4.47;;;8.20;99.90;;;;;;5071830;28;20048;-69
2023/12/18 02:47:28;;;;;;;19.65;5.78;;;8.40;99.90;;;;;;5072244;28;20052;-69
2023/12/18 02:49:55;;;;;;;16.92;5.80;;;8.40;99.90;;;;;;5071813;28;20045;-69
2023/12/18 02:52:22;;;;;;;21.00;6.20;;;8.30;99.90;;;;;;5069975;28;20090;-69
2023/12/18 02:54:49;;;;;;;14.07;5.38;;;8.40;99.90;;;;;;5072035;28;20106;-69
2023/12/18 02:57:17;;;;;;;16.08;5.18;;;8.30;99.90;;;;;;5071606;28;20078;-69
2023/12/18 02:59:44;;;;;;;17.42;5.65;;;8.30;99.90;;;;;;5069843;28;20102;-70
2023/12/18 03:02:11;;;;;;;18.60;5.50;;;8.30;99.90;;;;;;5071642;28;20048;-70
2023/12/18 03:04:40;;;;;;;11.35;5.05;;;8.30;99.90;;;;;;5071495;28;20064;-70
2023/12/18 03:07:07;;;;;;;17.30;5.53;;;8.30;99.90;;;;;;5072088;28;20044;-71
2023/12/18 03:09:34;;;;;;;14.38;5.55;;;8.40;99.90;;;;;;5071610;28;20060;-70
2023/12/18 03:12:01;;;;;;;12.80;5.35;;;8.40;99.90;;;;;;5071275;28;20110;-70
2023/12/18 03:14:29;;;;;;;14.80;5.90;;;8.30;99.90;;;;;;5071478;28;20055;-70
2023/12/18 03:16:56;;;;;;;14.82;5.43;;;8.40;99.90;;;;;;5071753;28;20056;-71
2023/12/18 03:19:23;;;;;;;13.93;4.68;;;8.40;99.90;;;;;;5071228;28;20527;-71
2023/12/18 03:21:50;;;;;;;17.08;5.20;;;8.40;99.90;;;;;;5071838;28;20049;-71
2023/12/18 03:24:17;;;;;;;11.07;5.57;;;8.40;99.90;;;;;;5071269;28;20086;-71
2023/12/18 03:26:44;;;;;;;15.50;6.43;;;8.30;99.90;;;;;;5071387;28;20381;-71
2023/12/18 03:29:11;;;;;;;17.70;6.70;;;8.30;99.90;;;;;;5071584;28;20056;-71
2023/12/18 03:31:39;;;;;;;19.88;5.53;;;8.30;99.90;;;;;;5071047;28;20113;-70
2023/12/18 03:34:06;;;;;;;15.60;6.07;;;8.30;99.90;;;;;;5071422;28;20049;-69
2023/12/18 03:36:33;;;;;;;15.55;6.40;;;8.30;99.90;;;;;;5072349;28;20048;-70
2023/12/18 03:39:00;;;;;;;17.00;7.10;;;8.30;99.90;;;;;;5068504;28;20051;-70
2023/12/18 03:41:27;;;;;;;13.55;5.78;;;8.30;99.90;;;;;;5071523;28;20041;-70
2023/12/18 03:43:54;;;;;;;17.73;6.32;;;8.30;99.90;;;;;;5070825;28;20109;-70
2023/12/18 03:46:21;;;;;;;10.25;5.82;;;8.20;99.90;;;;;;5070258;28;20406;-70
2023/12/18 03:48:49;;;;;;;13.57;5.35;;;8.30;99.90;;;;;;5071073;28;20045;-70
2023/12/18 03:51:16;;;;;;;14.93;5.95;;;8.30;99.90;;;;;;5071143;28;20454;-70
2023/12/18 03:53:43;;;;;;;14.48;5.85;;;8.30;99.90;;;;;;5070826;28;20121;-70
2023/12/18 03:56:10;;;;;;;18.30;6.63;;;8.20;99.90;;;;;;5071219;28;20051;-70
2023/12/18 03:58:37;;;;;;;13.23;5.35;;;8.20;99.90;;;;;;5068945;28;20049;-70
2023/12/18 04:01:04;;;;;;;17.75;6.93;;;8.20;99.90;;;;;;5070309;28;20052;-70
2023/12/18 04:03:31;;;;;;;13.57;5.68;;;8.20;99.90;;;;;;5071040;28;20443;-70
2023/12/18 04:05:59;;;;;;;18.27;6.82;;;8.20;99.90;;;;;;5070806;28;20066;-71
2023/12/18 04:08:26;;;;;;;22.65;6.18;;;8.20;99.90;;;;;;5070431;28;20063;-71
2023/12/18 04:10:53;;;;;;;15.73;5.68;;;8.30;99.90;;;;;;5070862;28;20052;-71
2023/12/18 04:13:20;;;;;;;18.17;6.63;;;8.30;99.90;;;;;;5070426;28;20056;-70
2023/12/18 04:15:47;;;;;;;12.63;6.70;;;8.30;99.90;;;;;;5071041;28;20044;-70
2023/12/18 04:18:14;;;;;;;20.27;7.00;;;8.20;99.90;;;;;;5070869;28;20048;-70
2023/12/18 04:20:40;;;;;;;15.43;6.22;;;8.20;99.90;;;;;;5070814;28;20041;-70
2023/12/18 04:23:09;;;;;;;18.02;7.10;;;8.30;99.90;;;;;;5070565;28;20049;-70
2023/12/18 04:25:36;;;;;;;13.68;7.22;;;8.30;99.90;;;;;;5070727;28;20048;-70
2023/12/18 04:28:02;;;;;;;22.25;7.25;;;8.40;99.90;;;;;;5070420;28;20117;-70
2023/12/18 04:30:29;;;;;;;13.85;6.25;;;8.20;99.90;;;;;;5070819;28;20114;-70
2023/12/18 04:32:56;;;;;;;15.55;6.00;;;8.20;99.90;;;;;;5070766;28;20060;-71
2023/12/18 04:35:23;;;;;;;25.42;6.18;;;8.20;99.90;;;;;;5070258;28;20110;-71
2023/12/18 04:37:50;;;;;;;16.23;6.47;;;8.30;99.90;;;;;;5071760;28;20052;-71
2023/12/18 04:40:18;;;;;;;19.50;7.18;;;8.30;99.90;;;;;;5070738;28;20040;-71
2023/12/18 04:42:45;;;;;;;16.10;6.53;;;8.30;99.90;;;;;;5069534;28;20404;-71
2023/12/18 04:45:12;;;;;;;13.75;6.65;;;8.30;99.90;;;;;;5070317;28;20047;-71
2023/12/18 04:47:39;;;;;;;18.95;5.97;;;8.30;99.90;;;;;;5070818;28;20059;-71
2023/12/18 04:50:06;;;;;;;24.52;7.78;;;8.30;99.90;;;;;;5069709;28;20514;-70
2023/12/18 04:52:33;;;;;;;19.63;6.40;;;8.30;99.90;;;;;;5070735;28;20059;-70
2023/12/18 04:55:00;;;;;;;16.50;6.95;;;8.30;99.90;;;;;;5070407;28;20048;-70
2023/12/18 04:57:28;;;;;;;18.35;6.25;;;8.30;99.90;;;;;;5070100;28;20044;-70
2023/12/18 04:59:55;;;;;;;16.73;7.10;;;8.40;99.90;;;;;;5070582;28;20098;-70
2023/12/18 05:02:22;;;;;;;15.00;6.85;;;8.30;99.90;;;;;;5070622;28;20446;-70
2023/12/18 05:04:49;;;;;;;15.07;6.88;;;8.30;99.90;;;;;;5071364;28;20420;-70
2023/12/18 05:07:16;;;;;;;13.35;7.38;;;8.30;99.90;;;;;;5073987;28;20086;-70
2023/12/18 05:09:43;;;;;;;18.13;6.95;;;8.40;99.90;;;;;;5073494;28;20508;-70
2023/12/18 05:12:10;;;;;;;17.83;6.82;;;8.30;99.90;;;;;;5074022;28;20052;-71
2023/12/18 05:14:38;;;;;;;18.98;6.30;;;8.40;99.90;;;;;;5073869;28;20048;-71
2023/12/18 05:17:05;;;;;;;19.70;6.88;;;8.40;99.90;;;;;;5073121;28;20041;-70
2023/12/18 05:19:32;;;;;;;20.60;6.68;;;8.30;99.90;;;;;;5074028;28;20117;-71
2023/12/18 05:21:58;;;;;;;26.77;7.40;;;8.40;99.90;;;;;;5073766;28;20086;-71
2023/12/18 05:24:25;;;;;;;16.27;7.65;;;8.40;99.90;;;;;;5073067;28;20052;-71
2023/12/18 05:26:52;;;;;;;16.00;7.30;;;8.40;99.90;;;;;;5073688;28;20045;-72
2023/12/18 05:29:19;;;;;;;17.55;7.32;;;8.40;99.90;;;;;;5073716;28;20052;-72
2023/12/18 05:31:47;;;;;;;12.02;6.57;;;8.40;99.90;;;;;;5073070;28;20049;-71
2023/12/18 05:34:14;;;;;;;20.13;6.57;;;8.40;99.90;;;;;;5071762;28;20049;-71
2023/12/18 05:36:41;;;;;;;16.23;6.60;;;8.40;99.90;;;;;;5073470;28;20049;-71
2023/12/18 05:39:08;;;;;;;14.18;6.43;;;8.40;99.90;;;;;;5073001;28;20455;-70
2023/12/18 05:41:34;;;;;;;15.98;7.00;;;8.40;99.90;;;;;;5073697;28;20052;-70
2023/12/18 05:44:01;;;;;;;20.90;7.50;;;8.40;99.90;;;;;;5073103;28;20052;-70
2023/12/18 05:46:28;;;;;;;21.52;7.13;;;8.40;99.90;;;;;;5070511;28;20138;-70
2023/12/18 05:48:56;;;;;;;21.38;8.13;;;8.40;99.90;;;;;;5063208;28;20048;-70
2023/12/18 05:51:24;;;;;;;20.23;7.95;;;8.50;99.90;;;;;;5072228;28;20053;-70
2023/12/18 05:53:51;;;;;;;16.45;7.50;;;8.50;99.90;;;;;;5070434;28;20056;-71
2023/12/18 05:56:18;;;;;;;14.82;6.80;;;8.50;99.90;;;;;;5070994;28;20041;-70
2023/12/18 05:58:45;;;;;;;28.85;8.95;;;8.50;99.90;;;;;;5072965;28;20102;-70
2023/12/18 06:01:12;;;;;;;20.55;7.97;;;8.50;99.90;;;;;;5071915;28;20084;-71
2023/12/18 06:03:39;;;;;;;16.85;6.88;;;8.50;99.90;;;;;;5075353;28;20455;-70
2023/12/18 06:06:07;;;;;;;16.67;7.47;;;8.50;99.90;;;;;;5071719;28;20052;-70
2023/12/18 06:08:34;;;;;;;13.57;6.97;;;8.50;99.90;;;;;;5072164;28;20091;-69
2023/12/18 06:11:01;;;;;;;15.68;7.57;;;8.50;99.90;;;;;;5102082;28;20102;-70
2023/12/18 06:13:31;;;;;;;16.65;7.70;;;8.50;99.90;;;;;;5074073;28;20414;-70
2023/12/18 06:15:58;;;;;;;20.35;7.47;;;8.50;99.90;;;;;;5069231;28;20478;-69
2023/12/18 06:18:24;;;;;;;20.70;7.57;;;8.50;99.90;;;;;;5071559;28;20064;-69
2023/12/18 06:20:51;;;;;;;18.73;6.90;;;8.50;99.90;;;;;;5071362;28;20102;-70
2023/12/18 06:23:19;;;;;;;16.70;7.63;;;8.50;99.90;;;;;;5102896;28;20056;-71
2023/12/18 06:25:46;;;;;;;14.65;7.30;;;8.50;99.90;;;;;;5072011;28;20061;-69
2023/12/18 06:28:13;;;;;;;19.85;7.72;;;8.50;99.90;;;;;;5071518;28;20049;-69
2023/12/18 06:30:40;;;;;;;17.92;7.28;;;8.50;99.90;;;;;;5071791;28;20052;-69
2023/12/18 06:33:07;;;;;;;21.88;8.30;;;8.50;99.90;;;;;;5069546;28;20048;-70
2023/12/18 06:35:34;;;;;;;23.55;7.50;;;8.50;99.90;;;;;;5071507;28;20045;-70
2023/12/18 06:38:00;;;;;;;16.42;7.65;;;8.50;99.90;;;;;;5072038;28;20044;-70
2023/12/18 06:40:29;;;;;;;19.65;7.50;;;8.50;99.90;;;;;;5071455;28;20056;-71
2023/12/18 06:42:55;;;;;;;17.02;7.63;;;8.50;99.90;;;;;;5071405;28;20132;-69
2023/12/18 06:45:22;;;;;;;14.70;6.43;;;8.50;99.90;;;;;;5071761;28;20048;-70
2023/12/18 06:47:49;;;;;;;19.83;7.55;;;8.50;99.90;;;;;;5071359;28;20576;-69
2023/12/18 06:50:16;;;;;;;18.40;8.30;;;8.50;99.90;;;;;;5070996;28;20468;-70
2023/12/18 06:52:44;;;;;;;20.00;8.20;;;8.50;99.90;;;;;;5071086;28;20094;-69
2023/12/18 06:55:11;;;;;;;22.58;8.30;;;8.50;99.90;;;;;;5072275;28;20465;-70
2023/12/18 06:57:40;;;;;;;18.27;8.02;;;8.60;99.90;;;;;;5071549;28;20049;-70
2023/12/18 07:00:08;;;;;;;15.15;7.35;;;8.50;99.90;;;;;;5071141;28;20966;-70
2023/12/18 07:02:35;;;;;;;25.50;8.35;;;8.60;99.90;;;;;;5070030;28;20056;-69
2023/12/18 07:05:02;;;;;;;17.10;7.40;;;8.50;99.90;;;;;;5071530;28;20044;-70
2023/12/18 07:07:29;;;;;;;20.15;7.97;;;8.50;99.90;;;;;;5071852;28;20568;-70
2023/12/18 07:09:55;;;;;;;23.98;10.25;;;8.50;99.90;;;;;;5066458;28;20550;-69
2023/12/18 07:12:22;;;;;;;18.10;8.57;;;8.50;99.90;;;;;;5067987;28;20053;-70
2023/12/18 07:14:51;;;;;;;20.48;8.43;;;8.60;99.90;;;;;;5070904;28;20087;-70
2023/12/18 07:17:17;;;;;;;19.63;8.38;;;8.60;99.90;;;;;;5070115;28;20047;-70
2023/12/18 07:19:44;;;;;;;19.83;9.98;;;8.60;99.90;;;;;;5070691;28;20072;-70
2023/12/18 07:22:11;;;;;;;20.77;8.63;;;8.50;99.90;;;;;;5071099;28;20048;-70
2023/12/18 07:24:39;;;;;;;23.27;8.95;;;8.60;99.90;;;;;;5069793;28;20097;-70
2023/12/18 07:27:06;;;;;;;24.73;9.50;;;8.50;99.90;;;;;;5070558;28;20052;-70
2023/12/18 07:29:32;;;;;;;23.42;9.25;;;8.50;99.90;;;;;;5070288;28;20110;-69
2023/12/18 07:32:01;;;;;;;22.92;9.38;;;8.50;99.90;;;;;;5070279;28;20055;-70
2023/12/18 07:34:27;;;;;;;21.90;9.07;;;8.50;99.90;;;;;;5067853;28;20565;-70
2023/12/18 07:36:54;;;;;;;21.58;9.48;;;8.50;99.90;;;;;;5070463;28;20102;-70
2023/12/18 07:39:21;;;;;;;18.42;9.35;;;8.50;99.90;;;;;;5069682;28;20148;-70
2023/12/18 07:41:48;;;;;;;25.98;9.45;;;8.50;99.90;;;;;;5070283;28;20101;-70
2023/12/18 07:44:15;;;;;;;28.85;10.55;;;8.50;99.90;;;;;;5069875;28;20467;-70
2023/12/18 07:46:42;;;;;;;19.27;8.50;;;8.50;99.90;;;;;;5067352;28;20045;-70
2023/12/18 07:49:10;;;;;;;21.65;9.60;;;8.50;99.90;;;;;;5070209;28;20061;-70
2023/12/18 07:51:38;;;;;;;17.88;9.27;;;8.60;99.90;;;;;;5069520;28;20052;-70
2023/12/18 07:54:05;;;;;;;25.63;10.48;;;8.60;99.90;;;;;;5069820;28;20113;-71
2023/12/18 07:56:32;;;;;;;32.25;8.95;;;8.60;99.90;;;;;;5069728;28;20044;-70
2023/12/18 07:58:58;;;;;;;19.73;9.32;;;8.60;99.90;;;;;;5069563;28;20048;-71
2023/12/18 08:01:25;;;;;;;21.38;9.27;;;8.60;99.90;;;;;;5069390;28;20052;-70
2023/12/18 08:03:52;;;;;;;24.10;9.50;;;8.60;99.90;;;;;;5069901;28;20178;-71
2023/12/18 08:06:20;;;;;;;20.38;9.00;;;8.60;99.90;;;;;;5068941;28;20056;-71
2023/12/18 08:08:47;;;;;;;19.08;9.20;;;8.60;99.90;;;;;;5103799;28;20470;-71
2023/12/18 08:11:14;;;;;;;23.92;9.00;;;8.60;99.90;;;;;;5070077;28;20102;-70
2023/12/18 08:13:42;;;;;;;20.80;7.82;;;8.60;99.90;;;;;;5101951;28;20044;-70
2023/12/18 08:16:10;;;;;;;23.98;9.82;;;8.60;99.90;;;;;;5063977;28;20060;-71
2023/12/18 08:18:37;;;;;;;18.58;9.35;;;8.60;99.90;;;;;;5068463;28;20102;-71
2023/12/18 08:21:05;;;;;;;21.80;9.95;;;8.60;99.90;;;;;;5068932;28;20137;-70
2023/12/18 08:23:33;;;;;;;18.88;8.35;;;8.60;99.90;;;;;;5067084;28;20128;-70
2023/12/18 08:26:00;;;;;;;18.92;10.40;;;8.60;99.90;;;;;;5068786;28;20200;-70
2023/12/18 08:28:27;;;;;;;24.60;9.50;;;8.60;99.90;;;;;;5068804;28;20386;-70
2023/12/18 08:30:53;;;;;;;20.55;10.45;;;8.60;99.90;;;;;;5067005;28;20061;-70
2023/12/18 08:33:20;;;;;;;27.70;10.05;;;8.60;99.90;;;;;;5069256;28;20056;-70
2023/12/18 08:35:47;;;;;;;18.67;8.95;;;8.60;99.90;;;;;;5064832;28;20053;-70
2023/12/18 08:38:14;;;;;;;27.23;11.07;;;8.70;99.90;;;;;;5067004;28;20443;-70
2023/12/18 08:40:43;;;;;;;21.60;11.63;;;8.70;99.90;;;;;;5070496;28;20068;-70
2023/12/18 08:43:11;;;;;;;28.67;9.10;;;8.70;99.90;;;;;;5070658;28;20053;-70
2023/12/18 08:45:38;;;;;;;32.60;11.70;;;8.70;99.90;;;;;;5106834;28;20044;-70
2023/12/18 08:48:05;;;;;;;31.42;11.88;;;8.70;99.90;;;;;;5072035;28;20041;-70
2023/12/18 08:50:32;;;;;;;31.52;10.13;;;8.70;99.90;;;;;;5062163;28;20052;-70
2023/12/18 08:52:59;;;;;;;19.75;9.60;;;8.70;99.90;;;;;;5070914;28;20097;-70
2023/12/18 08:55:26;;;;;;;21.08;9.65;;;8.70;99.90;;;;;;5072526;28;20197;-70
2023/12/18 08:57:54;;;;;;;24.88;9.85;;;8.70;99.90;;;;;;5072631;28;20078;-71
2023/12/18 09:00:22;;;;;;;25.02;9.77;;;8.70;99.90;;;;;;5072627;28;20055;-71
2023/12/18 09:02:49;;;;;;;28.90;10.07;;;8.70;99.90;;;;;;5071598;28;20048;-70
2023/12/18 09:05:15;;;;;;;23.40;9.23;;;8.80;99.90;;;;;;5072823;28;20098;-70
2023/12/18 09:07:42;;;;;;;29.20;9.48;;;8.80;99.90;;;;;;5072435;28;20037;-70
2023/12/18 09:10:11;;;;;;;24.42;9.60;;;8.80;99.90;;;;;;5072492;28;20078;-71
2023/12/18 09:12:38;;;;;;;20.85;9.00;;;8.90;99.90;;;;;;5072609;28;20048;-70
2023/12/18 09:15:08;;;;;;;26.17;9.75;;;9.00;99.90;;;;;;5072977;28;20052;-71
2023/12/18 09:17:35;;;;;;;14.85;8.13;;;8.90;99.90;;;;;;5071867;28;20067;-71
2023/12/18 09:20:02;;;;;;;22.05;10.02;;;9.00;99.90;;;;;;5073074;28;20052;-70
2023/12/18 09:22:29;;;;;;;23.35;8.80;;;9.00;99.90;;;;;;5072526;28;20052;-71
2023/12/18 09:24:56;;;;;;;27.08;9.45;;;9.00;99.90;;;;;;5072639;28;20045;-70
2023/12/18 09:27:23;;;;;;;26.70;9.13;;;9.00;99.90;;;;;;5073481;28;20053;-70
2023/12/18 09:29:50;;;;;;;22.27;9.05;;;9.00;99.90;;;;;;5072245;28;20044;-70
2023/12/18 09:32:18;;;;;;;17.63;9.90;;;9.00;99.90;;;;;;5072928;28;20044;-69
2023/12/18 09:34:45;;;;;;;26.95;9.27;;;9.00;99.90;;;;;;5072274;28;20090;-70
2023/12/18 09:37:12;;;;;;;24.38;9.52;;;9.00;99.90;;;;;;5071179;28;20045;-70
2023/12/18 09:39:41;;;;;;;22.80;9.88;;;9.00;99.90;;;;;;5072895;28;20474;-70
2023/12/18 09:42:10;;;;;;;21.50;9.07;;;9.00;99.90;;;;;;5071852;28;20098;-71
2023/12/18 09:44:38;;;;;;;24.65;9.27;;;9.00;99.90;;;;;;5071708;28;20052;-71
2023/12/18 09:47:06;;;;;;;27.83;9.52;;;9.10;99.90;;;;;;5072114;28;20566;-71
2023/12/18 09:49:35;;;;;;;18.38;8.95;;;9.10;99.90;;;;;;5072796;28;20064;-71
2023/12/18 09:52:06;;;;;;;23.77;9.88;;;9.10;99.90;;;;;;5070639;28;20143;-70
2023/12/18 09:54:34;;;;;;;19.95;9.02;;;9.10;99.90;;;;;;5071859;28;20515;-71
2023/12/18 09:57:03;;;;;;;21.65;9.65;;;9.10;99.90;;;;;;5072048;28;20044;-71
2023/12/18 09:59:30;;;;;;;27.17;10.25;;;9.10;99.90;;;;;;5071163;28;20048;-71
2023/12/18 10:01:57;;;;;;;21.27;9.73;;;9.10;99.90;;;;;;5071174;28;20037;-70
2023/12/18 10:04:24;;;;;;;36.95;10.48;;;9.10;99.90;;;;;;5072836;28;20055;-70
2023/12/18 10:06:53;;;;;;;18.77;9.63;;;9.10;99.90;;;;;;5071852;28;20051;-70
2023/12/18 10:09:21;;;;;;;26.48;10.15;;;9.10;99.90;;;;;;5071783;28;20052;-71
2023/12/18 10:11:49;;;;;;;24.23;10.75;;;9.10;99.90;;;;;;5071748;28;20041;-71
2023/12/18 10:14:16;;;;;;;18.35;9.88;;;9.10;99.90;;;;;;5071077;28;20048;-70
2023/12/18 10:16:43;;;;;;;25.08;11.10;;;9.10;99.90;;;;;;5071875;28;20102;-71
2023/12/18 10:19:12;;;;;;;26.83;11.30;;;9.10;99.90;;;;;;5069004;28;20056;-71
2023/12/18 10:21:39;;;;;;;30.08;10.55;;;9.10;99.90;;;;;;5069715;28;20098;-71
2023/12/18 10:24:09;;;;;;;27.10;11.48;;;9.10;99.90;;;;;;5070053;28;20060;-71
2023/12/18 10:26:36;;;;;;;24.80;9.52;;;9.10;99.90;;;;;;5070910;28;20151;-71
2023/12/18 10:29:03;;;;;;;22.60;10.88;;;9.20;99.90;;;;;;5068923;28;20048;-71
2023/12/18 10:31:30;;;;;;;19.77;10.60;;;9.20;99.90;;;;;;5070487;28;20044;-71
2023/12/18 10:33:58;;;;;;;19.65;11.48;;;9.20;99.90;;;;;;5068584;28;20036;-71
2023/12/18 10:36:26;;;;;;;35.88;12.82;;;9.20;99.90;;;;;;5069563;28;20056;-71
2023/12/18 10:38:54;;;;;;;24.70;11.88;;;9.20;99.90;;;;;;5071114;28;20054;-72
2023/12/18 10:41:23;;;;;;;30.00;12.93;;;9.20;99.90;;;;;;5068575;28;20078;-72
2023/12/18 10:43:51;;;;;;;29.02;13.02;;;9.20;99.90;;;;;;5071401;28;20048;-72
2023/12/18 10:46:18;;;;;;;22.75;11.50;;;9.20;99.90;;;;;;5071660;28;20051;-72
2023/12/18 10:48:48;;;;;;;25.77;11.77;;;9.20;99.90;;;;;;5070802;28;20048;-71
2023/12/18 10:51:15;;;;;;;31.77;12.07;;;9.10;99.90;;;;;;5071991;28;20508;-71
2023/12/18 10:53:43;;;;;;;20.67;11.65;;;9.10;99.90;;;;;;5072018;28;20049;-71
2023/12/18 10:56:11;;;;;;;24.33;12.75;;;9.10;99.90;;;;;;5071158;28;20041;-71
2023/12/18 10:58:43;;;;;;;26.20;13.23;;;9.20;99.90;;;;;;5071653;28;20056;-71
2023/12/18 11:01:10;;;;;;;21.38;11.52;;;9.00;99.90;;;;;;5070889;28;20053;-71
2023/12/18 11:03:37;;;;;;;23.17;12.13;;;9.00;99.90;;;;;;5070800;28;20045;-71
2023/12/18 11:06:07;;;;;;;32.55;12.93;;;9.10;99.90;;;;;;5071419;28;20070;-70
2023/12/18 11:08:34;;;;;;;23.40;11.73;;;9.00;99.90;;;;;;5070685;28;20089;-70
2023/12/18 11:11:04;;;;;;;27.23;12.60;;;9.00;99.90;;;;;;5069584;28;20440;-70
2023/12/18 11:13:39;;;;;;;26.55;13.05;;;9.00;99.90;;;;;;5071452;28;20052;-70
2023/12/18 11:16:17;;;;;;;32.22;12.10;;;9.10;99.90;;;;;;5070874;28;20053;-71
2023/12/18 11:18:57;;;;;;;27.40;13.48;;;9.00;99.90;;;;;;5071329;28;20040;-71
2023/12/18 11:21:25;;;;;;;23.42;12.13;;;9.00;99.90;;;;;;5069979;28;20048;-70
2023/12/18 11:23:52;;;;;;;20.45;12.57;;;9.10;99.90;;;;;;5070688;28;20052;-70
2023/12/18 11:26:20;;;;;;;27.88;12.85;;;9.10;99.90;;;;;;5071177;28;20493;-70
2023/12/18 11:28:48;;;;;;;25.08;12.80;;;9.10;99.90;;;;;;5070842;28;20049;-70
2023/12/18 11:31:20;;;;;;;25.10;12.43;;;9.10;99.90;;;;;;5068399;28;20106;-70
2023/12/18 11:34:00;;;;;;;29.38;12.40;;;9.10;99.90;;;;;;5072241;28;20458;-70
2023/12/18 11:36:27;;;;;;;24.05;11.38;;;9.10;99.90;;;;;;5070831;28;20093;-70
2023/12/18 11:38:55;;;;;;;28.00;12.38;;;9.10;99.90;;;;;;5068298;28;20048;-70
2023/12/18 11:41:42;;;;;;;26.52;13.02;;;9.10;99.90;;;;;;5070847;28;20097;-70
2023/12/18 11:44:11;;;;;;;33.65;12.48;;;9.20;99.90;;;;;;5069974;28;20377;-71
2023/12/18 11:46:41;;;;;;;27.10;12.48;;;9.20;99.90;;;;;;5070873;28;20482;-71
2023/12/18 11:49:08;;;;;;;32.50;12.13;;;9.20;99.90;;;;;;5102335;28;20048;-71
2023/12/18 11:51:35;;;;;;;28.98;13.80;;;9.20;99.90;;;;;;5070326;28;20463;-71
2023/12/18 11:54:03;;;;;;;23.20;11.60;;;9.20;99.90;;;;;;5070805;28;20473;-71
2023/12/18 11:56:39;;;;;;;17.85;12.23;;;9.20;99.90;;;;;;5070711;28;20052;-71
2023/12/18 11:59:07;;;;;;;21.52;11.18;;;9.20;99.90;;;;;;5070381;28;20132;-71
2023/12/18 12:01:34;;;;;;;26.52;12.15;;;9.20;99.90;;;;;;5071714;28;20044;-70
2023/12/18 12:04:02;;;;;;;22.10;11.77;;;9.30;99.90;;;;;;5070740;28;20048;-70
2023/12/18 12:06:29;;;;;;;27.80;13.00;;;9.30;99.90;;;;;;5070196;28;20376;-70
2023/12/18 12:08:56;;;;;;;28.95;12.23;;;9.20;99.90;;;;;;5070357;28;20045;-70
2023/12/18 12:11:23;;;;;;;29.30;12.82;;;9.30;99.90;;;;;;5070432;28;20044;-71
2023/12/18 12:13:54;;;;;;;21.33;10.93;;;9.30;99.90;;;;;;5069326;28;20052;-71
2023/12/18 12:16:21;;;;;;;20.42;11.68;;;9.30;99.90;;;;;;5070738;28;20526;-71
2023/12/18 12:18:51;;;;;;;22.95;11.18;;;9.30;99.90;;;;;;5069958;28;20074;-71
2023/12/18 12:21:19;;;;;;;31.02;13.55;;;9.30;99.90;;;;;;5070297;28;20102;-71
2023/12/18 12:23:47;;;;;;;25.30;11.45;;;9.30;99.90;;;;;;5070328;28;20102;-71
2023/12/18 12:26:16;;;;;;;23.67;10.55;;;9.40;99.90;;;;;;5070309;28;20083;-70
2023/12/18 12:28:43;;;;;;;26.83;12.63;;;9.40;99.90;;;;;;5074364;28;20439;-70
2023/12/18 12:31:10;;;;;;;16.30;9.98;;;9.40;99.90;;;;;;5070645;28;20048;-70
2023/12/18 12:33:42;;;;;;;28.70;10.77;;;9.40;99.90;;;;;;5069891;28;20489;-70
2023/12/18 12:36:09;;;;;;;19.67;10.63;;;9.40;99.90;;;;;;5070306;28;20063;-71
2023/12/18 12:38:38;;;;;;;23.85;10.98;;;9.40;99.90;;;;;;5070353;28;20040;-71
2023/12/18 12:41:05;;;;;;;24.23;11.48;;;9.40;99.90;;;;;;5069812;28;20515;-71
2023/12/18 12:43:32;;;;;;;27.33;11.73;;;9.40;99.90;;;;;;5070058;28;20508;-70
2023/12/18 12:46:00;;;;;;;18.73;11.15;;;9.40;99.90;;;;;;5070160;28;20044;-70